createdAt,value
2022-09-15T07:38:54.993Z,4.20
2022-09-15T07:49:01.823Z,5.28
2022-09-15T07:59:03.798Z,4.10
2022-09-15T08:09:05.685Z,3.50
2022-09-15T08:19:08.341Z,2.50
2022-09-15T08:29:10.039Z,2.50
2022-09-15T08:39:12.359Z,3.53
2022-09-15T08:49:47.482Z,2.45
2022-09-15T08:59:48.738Z,2.08
2022-09-15T09:10:14.978Z,3.13
2022-09-15T09:20:29.001Z,3.10
2022-09-15T09:30:35.786Z,3.55
2022-09-15T09:40:43.281Z,2.10
2022-09-15T09:50:51.118Z,2.55
2022-09-15T10:00:55.121Z,2.45
2022-09-15T10:11:03.975Z,1.85
2022-09-15T10:21:09.460Z,2.10
2022-09-15T10:31:20.216Z,1.98
2022-09-15T10:41:41.700Z,2.95
2022-09-15T10:51:57.910Z,2.67
2022-09-15T11:02:57.198Z,3.10
2022-09-15T11:13:35.080Z,3.03
2022-09-15T11:24:14.879Z,3.40
2022-09-15T11:34:34.360Z,3.70
2022-09-15T11:44:47.098Z,3.92
2022-09-15T11:54:54.199Z,4.45
2022-09-15T12:05:31.198Z,5.65
2022-09-15T12:15:34.022Z,6.50
2022-09-15T12:26:04.718Z,7.40
2022-09-15T12:36:38.835Z,7.65
2022-09-15T12:46:53.149Z,7.32
2022-09-15T12:56:58.536Z,6.57
2022-09-15T13:07:18.358Z,6.35
2022-09-15T13:17:27.819Z,4.70
2022-09-15T13:27:43.919Z,4.68
2022-09-15T13:38:16.945Z,4.63
2022-09-15T13:48:31.778Z,3.38
2022-09-15T14:09:01.803Z,3.22
2022-09-15T14:19:05.698Z,2.85
2022-09-15T14:29:09.637Z,3.08
2022-09-15T14:39:26.015Z,2.83
2022-09-15T14:49:28.300Z,3.90
2022-09-15T14:59:53.895Z,2.83
2022-09-15T15:10:05.462Z,3.33
2022-09-15T15:20:13.421Z,2.72
2022-09-15T15:30:33.816Z,3.22
2022-09-15T15:40:37.777Z,3.85
2022-09-15T15:50:40.138Z,3.58
2022-09-15T16:00:50.339Z,3.08
2022-09-15T16:10:57.402Z,3.13
2022-09-15T16:20:59.318Z,2.70
2022-09-15T16:31:02.259Z,2.58
2022-09-15T16:41:05.317Z,2.00
2022-09-15T16:51:30.914Z,2.20
2022-09-15T17:01:45.620Z,2.42
2022-09-15T17:11:48.658Z,2.38
2022-09-15T17:21:52.575Z,2.20
2022-09-15T17:31:55.518Z,2.28
2022-09-15T17:41:58.104Z,2.72
2022-09-15T17:51:59.961Z,2.80
2022-09-15T18:02:04.106Z,2.85
2022-09-15T18:12:06.512Z,2.67
2022-09-15T18:22:09.757Z,2.55
2022-09-15T18:32:12.397Z,4.65
2022-09-15T18:42:14.415Z,2.80
2022-09-15T18:52:16.400Z,3.03
2022-09-15T19:02:20.099Z,2.95
2022-09-15T19:12:23.453Z,3.10
2022-09-15T19:22:25.455Z,3.17
2022-09-15T19:32:27.655Z,2.97
2022-09-15T19:42:29.418Z,2.40
2022-09-15T19:52:31.702Z,1.95
2022-09-15T20:02:35.352Z,2.42
2022-09-15T20:12:37.419Z,3.35
2022-09-15T20:22:39.176Z,2.50
2022-09-15T20:32:41.094Z,2.08
2022-09-15T20:42:43.016Z,2.92
2022-09-15T20:52:44.799Z,2.17
2022-09-15T21:02:47.455Z,2.47
2022-09-15T21:12:49.157Z,2.63
2022-09-15T21:22:58.175Z,1.98
2022-09-15T21:33:00.717Z,1.98
2022-09-15T21:43:02.634Z,2.22
2022-09-15T21:53:04.695Z,1.80
2022-09-15T22:03:06.839Z,1.73
2022-09-15T22:13:10.335Z,2.40
2022-09-15T22:23:11.838Z,2.00
2022-09-15T22:33:13.636Z,1.80
2022-09-15T22:43:15.776Z,1.35
2022-09-15T22:53:18.058Z,1.70
2022-09-15T23:03:20.296Z,1.27
2022-09-15T23:13:22.450Z,1.85
2022-09-15T23:23:25.017Z,2.80
2022-09-15T23:33:29.417Z,2.03
2022-09-15T23:43:31.275Z,1.98
2022-09-15T23:53:33.457Z,1.88
